sensor_id;sensor_type;location;lat;lon;timestamp;P1;durP1;ratioP1;P2;durP2;ratioP2
12224;SDS011;6175;50.956;11.064;2023-02-12T00:02:06;29.88;;;18.35;;
12224;SDS011;6175;50.956;11.064;2023-02-12T00:04:33;29.55;;;18.08;;
12224;SDS011;6175;50.956;11.064;2023-02-12T00:07:00;25.80;;;17.67;;
12224;SDS011;6175;50.956;11.064;2023-02-12T00:09:28;26.70;;;17.48;;
12224;SDS011;6175;50.956;11.064;2023-02-12T00:11:55;30.13;;;17.88;;
12224;SDS011;6175;50.956;11.064;2023-02-12T00:14:22;29.67;;;18.05;;
12224;SDS011;6175;50.956;11.064;2023-02-12T00:16:49;29.83;;;18.40;;
12224;SDS011;6175;50.956;11.064;2023-02-12T00:19:16;30.58;;;18.80;;
12224;SDS011;6175;50.956;11.064;2023-02-12T00:21:43;28.85;;;18.55;;
12224;SDS011;6175;50.956;11.064;2023-02-12T00:24:11;30.70;;;18.52;;
12224;SDS011;6175;50.956;11.064;2023-02-12T00:29:08;27.52;;;17.23;;
12224;SDS011;6175;50.956;11.064;2023-02-12T00:31:35;25.75;;;16.52;;
12224;SDS011;6175;50.956;11.064;2023-02-12T00:34:02;27.33;;;17.50;;
12224;SDS011;6175;50.956;11.064;2023-02-12T00:36:29;26.67;;;16.30;;
12224;SDS011;6175;50.956;11.064;2023-02-12T00:38:57;29.00;;;18.90;;
12224;SDS011;6175;50.956;11.064;2023-02-12T00:41:25;28.80;;;18.55;;
12224;SDS011;6175;50.956;11.064;2023-02-12T00:43:53;26.42;;;17.58;;
12224;SDS011;6175;50.956;11.064;2023-02-12T00:46:20;28.65;;;17.30;;
12224;SDS011;6175;50.956;11.064;2023-02-12T00:48:47;27.50;;;17.17;;
12224;SDS011;6175;50.956;11.064;2023-02-12T00:51:14;27.88;;;16.20;;
12224;SDS011;6175;50.956;11.064;2023-02-12T00:53:41;30.83;;;17.98;;
12224;SDS011;6175;50.956;11.064;2023-02-12T00:56:08;24.20;;;16.48;;
12224;SDS011;6175;50.956;11.064;2023-02-12T00:58:35;29.83;;;17.58;;
12224;SDS011;6175;50.956;11.064;2023-02-12T01:01:04;28.63;;;16.88;;
12224;SDS011;6175;50.956;11.064;2023-02-12T01:03:31;27.00;;;16.75;;
12224;SDS011;6175;50.956;11.064;2023-02-12T01:05:58;26.63;;;15.50;;
12224;SDS011;6175;50.956;11.064;2023-02-12T01:08:25;27.08;;;16.05;;
12224;SDS011;6175;50.956;11.064;2023-02-12T01:10:55;27.95;;;16.77;;
12224;SDS011;6175;50.956;11.064;2023-02-12T01:13:23;26.42;;;16.40;;
12224;SDS011;6175;50.956;11.064;2023-02-12T01:15:59;26.13;;;17.38;;
12224;SDS011;6175;50.956;11.064;2023-02-12T01:18:28;24.45;;;16.30;;
12224;SDS011;6175;50.956;11.064;2023-02-12T01:20:55;28.20;;;16.92;;
12224;SDS011;6175;50.956;11.064;2023-02-12T01:23:23;25.88;;;16.67;;
12224;SDS011;6175;50.956;11.064;2023-02-12T01:25:50;23.52;;;15.30;;
12224;SDS011;6175;50.956;11.064;2023-02-12T01:28:17;25.48;;;15.98;;
12224;SDS011;6175;50.956;11.064;2023-02-12T01:30:44;24.98;;;15.85;;
12224;SDS011;6175;50.956;11.064;2023-02-12T01:33:11;25.23;;;16.20;;
12224;SDS011;6175;50.956;11.064;2023-02-12T01:35:39;23.70;;;15.40;;
12224;SDS011;6175;50.956;11.064;2023-02-12T01:38:06;25.58;;;15.80;;
12224;SDS011;6175;50.956;11.064;2023-02-12T01:40:33;23.17;;;15.23;;
12224;SDS011;6175;50.956;11.064;2023-02-12T01:43:01;24.58;;;15.93;;
12224;SDS011;6175;50.956;11.064;2023-02-12T01:48:17;23.25;;;15.55;;
12224;SDS011;6175;50.956;11.064;2023-02-12T01:50:47;25.13;;;15.73;;
12224;SDS011;6175;50.956;11.064;2023-02-12T01:53:15;24.88;;;15.77;;
12224;SDS011;6175;50.956;11.064;2023-02-12T01:55:45;25.40;;;16.30;;
12224;SDS011;6175;50.956;11.064;2023-02-12T01:58:17;24.88;;;15.57;;
12224;SDS011;6175;50.956;11.064;2023-02-12T02:00:44;21.02;;;14.43;;
12224;SDS011;6175;50.956;11.064;2023-02-12T02:03:12;22.33;;;14.80;;
12224;SDS011;6175;50.956;11.064;2023-02-12T02:05:43;21.48;;;14.77;;
12224;SDS011;6175;50.956;11.064;2023-02-12T02:08:19;21.98;;;14.73;;
12224;SDS011;6175;50.956;11.064;2023-02-12T02:10:46;20.58;;;14.82;;
12224;SDS011;6175;50.956;11.064;2023-02-12T02:13:13;25.52;;;15.95;;
12224;SDS011;6175;50.956;11.064;2023-02-12T02:15:58;25.55;;;15.98;;
12224;SDS011;6175;50.956;11.064;2023-02-12T02:18:32;23.35;;;15.40;;
12224;SDS011;6175;50.956;11.064;2023-02-12T02:24:12;22.65;;;14.95;;
12224;SDS011;6175;50.956;11.064;2023-02-12T02:27:19;24.75;;;15.68;;
12224;SDS011;6175;50.956;11.064;2023-02-12T02:33:14;20.40;;;13.88;;
12224;SDS011;6175;50.956;11.064;2023-02-12T02:35:51;22.08;;;14.75;;
12224;SDS011;6175;50.956;11.064;2023-02-12T02:38:23;23.15;;;14.60;;
12224;SDS011;6175;50.956;11.064;2023-02-12T02:40:57;20.65;;;13.82;;
12224;SDS011;6175;50.956;11.064;2023-02-12T02:43:30;22.67;;;14.88;;
12224;SDS011;6175;50.956;11.064;2023-02-12T02:46:01;20.75;;;14.73;;
12224;SDS011;6175;50.956;11.064;2023-02-12T02:48:34;20.33;;;14.07;;
12224;SDS011;6175;50.956;11.064;2023-02-12T02:51:05;20.50;;;13.73;;
12224;SDS011;6175;50.956;11.064;2023-02-12T02:53:36;20.70;;;13.80;;
12224;SDS011;6175;50.956;11.064;2023-02-12T02:56:08;19.38;;;13.48;;
12224;SDS011;6175;50.956;11.064;2023-02-12T02:58:40;23.25;;;14.90;;
12224;SDS011;6175;50.956;11.064;2023-02-12T03:01:10;22.80;;;14.85;;
12224;SDS011;6175;50.956;11.064;2023-02-12T03:03:43;19.00;;;12.95;;
12224;SDS011;6175;50.956;11.064;2023-02-12T03:06:17;18.27;;;13.60;;
12224;SDS011;6175;50.956;11.064;2023-02-12T03:08:48;18.98;;;12.95;;
12224;SDS011;6175;50.956;11.064;2023-02-12T03:11:20;23.90;;;13.48;;
12224;SDS011;6175;50.956;11.064;2023-02-12T03:13:51;19.73;;;13.18;;
12224;SDS011;6175;50.956;11.064;2023-02-12T03:16:24;20.38;;;14.68;;
12224;SDS011;6175;50.956;11.064;2023-02-12T03:18:55;20.73;;;14.25;;
12224;SDS011;6175;50.956;11.064;2023-02-12T03:21:29;22.00;;;13.75;;
12224;SDS011;6175;50.956;11.064;2023-02-12T03:24:00;17.42;;;12.73;;
12224;SDS011;6175;50.956;11.064;2023-02-12T03:26:32;20.02;;;13.80;;
12224;SDS011;6175;50.956;11.064;2023-02-12T03:29:05;20.48;;;13.95;;
12224;SDS011;6175;50.956;11.064;2023-02-12T03:31:34;19.13;;;13.55;;
12224;SDS011;6175;50.956;11.064;2023-02-12T03:34:10;21.52;;;14.35;;
12224;SDS011;6175;50.956;11.064;2023-02-12T03:36:44;20.42;;;13.90;;
12224;SDS011;6175;50.956;11.064;2023-02-12T03:39:18;19.17;;;12.65;;
12224;SDS011;6175;50.956;11.064;2023-02-12T03:41:53;20.02;;;14.13;;
12224;SDS011;6175;50.956;11.064;2023-02-12T03:44:27;17.02;;;12.27;;
12224;SDS011;6175;50.956;11.064;2023-02-12T03:47:08;18.52;;;12.98;;
12224;SDS011;6175;50.956;11.064;2023-02-12T03:49:44;20.38;;;14.18;;
12224;SDS011;6175;50.956;11.064;2023-02-12T03:52:17;19.33;;;13.98;;
12224;SDS011;6175;50.956;11.064;2023-02-12T03:54:44;20.92;;;13.75;;
12224;SDS011;6175;50.956;11.064;2023-02-12T03:57:12;18.77;;;12.88;;
12224;SDS011;6175;50.956;11.064;2023-02-12T03:59:42;18.33;;;12.95;;
12224;SDS011;6175;50.956;11.064;2023-02-12T04:02:10;20.65;;;13.07;;
12224;SDS011;6175;50.956;11.064;2023-02-12T04:04:37;19.20;;;13.65;;
12224;SDS011;6175;50.956;11.064;2023-02-12T04:07:06;17.92;;;13.13;;
12224;SDS011;6175;50.956;11.064;2023-02-12T04:09:33;20.33;;;14.38;;
12224;SDS011;6175;50.956;11.064;2023-02-12T04:15:01;19.73;;;13.02;;
12224;SDS011;6175;50.956;11.064;2023-02-12T04:17:42;18.73;;;13.90;;
12224;SDS011;6175;50.956;11.064;2023-02-12T04:20:15;20.15;;;14.25;;
12224;SDS011;6175;50.956;11.064;2023-02-12T04:22:51;19.85;;;13.48;;
12224;SDS011;6175;50.956;11.064;2023-02-12T04:25:28;18.60;;;13.23;;
12224;SDS011;6175;50.956;11.064;2023-02-12T04:28:09;16.55;;;12.90;;
12224;SDS011;6175;50.956;11.064;2023-02-12T04:30:43;18.25;;;13.25;;
12224;SDS011;6175;50.956;11.064;2023-02-12T04:33:14;19.10;;;13.30;;
12224;SDS011;6175;50.956;11.064;2023-02-12T04:35:46;19.83;;;13.27;;
12224;SDS011;6175;50.956;11.064;2023-02-12T04:38:18;18.30;;;13.10;;
12224;SDS011;6175;50.956;11.064;2023-02-12T04:40:47;19.88;;;14.15;;
12224;SDS011;6175;50.956;11.064;2023-02-12T04:43:24;19.58;;;13.77;;
12224;SDS011;6175;50.956;11.064;2023-02-12T04:45:53;20.77;;;14.77;;
12224;SDS011;6175;50.956;11.064;2023-02-12T04:48:20;20.02;;;13.82;;
12224;SDS011;6175;50.956;11.064;2023-02-12T04:50:47;18.55;;;13.38;;
12224;SDS011;6175;50.956;11.064;2023-02-12T04:53:14;19.48;;;13.15;;
12224;SDS011;6175;50.956;11.064;2023-02-12T04:55:43;17.92;;;13.02;;
12224;SDS011;6175;50.956;11.064;2023-02-12T04:58:11;19.10;;;13.15;;
12224;SDS011;6175;50.956;11.064;2023-02-12T05:00:38;19.23;;;14.20;;
12224;SDS011;6175;50.956;11.064;2023-02-12T05:03:05;19.00;;;12.98;;
12224;SDS011;6175;50.956;11.064;2023-02-12T05:05:33;16.80;;;11.90;;
12224;SDS011;6175;50.956;11.064;2023-02-12T05:08:00;15.68;;;11.55;;
12224;SDS011;6175;50.956;11.064;2023-02-12T05:10:27;17.10;;;12.38;;
12224;SDS011;6175;50.956;11.064;2023-02-12T05:12:55;15.68;;;11.35;;
12224;SDS011;6175;50.956;11.064;2023-02-12T05:15:22;18.98;;;13.65;;
12224;SDS011;6175;50.956;11.064;2023-02-12T05:17:49;19.02;;;12.65;;
12224;SDS011;6175;50.956;11.064;2023-02-12T05:20:16;20.38;;;14.23;;
12224;SDS011;6175;50.956;11.064;2023-02-12T05:22:43;18.52;;;12.82;;
12224;SDS011;6175;50.956;11.064;2023-02-12T05:25:10;17.45;;;12.60;;
12224;SDS011;6175;50.956;11.064;2023-02-12T05:27:36;21.10;;;14.02;;
12224;SDS011;6175;50.956;11.064;2023-02-12T05:30:06;18.75;;;14.05;;
12224;SDS011;6175;50.956;11.064;2023-02-12T05:32:34;17.05;;;13.05;;
12224;SDS011;6175;50.956;11.064;2023-02-12T05:35:01;18.48;;;13.73;;
12224;SDS011;6175;50.956;11.064;2023-02-12T05:37:28;21.88;;;15.10;;
12224;SDS011;6175;50.956;11.064;2023-02-12T05:39:55;18.75;;;12.90;;
12224;SDS011;6175;50.956;11.064;2023-02-12T05:42:22;18.48;;;13.07;;
12224;SDS011;6175;50.956;11.064;2023-02-12T05:44:49;22.83;;;14.80;;
12224;SDS011;6175;50.956;11.064;2023-02-12T05:47:18;21.60;;;14.30;;
12224;SDS011;6175;50.956;11.064;2023-02-12T05:49:44;19.95;;;14.52;;
12224;SDS011;6175;50.956;11.064;2023-02-12T05:52:11;21.13;;;13.93;;
12224;SDS011;6175;50.956;11.064;2023-02-12T05:54:38;23.77;;;14.98;;
12224;SDS011;6175;50.956;11.064;2023-02-12T05:57:05;20.38;;;14.13;;
12224;SDS011;6175;50.956;11.064;2023-02-12T05:59:33;22.50;;;14.85;;
12224;SDS011;6175;50.956;11.064;2023-02-12T06:02:00;20.10;;;13.82;;
12224;SDS011;6175;50.956;11.064;2023-02-12T06:04:29;20.50;;;14.10;;
12224;SDS011;6175;50.956;11.064;2023-02-12T06:06:55;20.30;;;13.15;;
12224;SDS011;6175;50.956;11.064;2023-02-12T06:09:23;17.23;;;12.75;;
12224;SDS011;6175;50.956;11.064;2023-02-12T06:11:50;19.63;;;13.70;;
12224;SDS011;6175;50.956;11.064;2023-02-12T06:14:17;19.05;;;12.65;;
12224;SDS011;6175;50.956;11.064;2023-02-12T06:16:46;22.38;;;14.45;;
12224;SDS011;6175;50.956;11.064;2023-02-12T06:19:14;18.33;;;12.80;;
12224;SDS011;6175;50.956;11.064;2023-02-12T06:21:43;19.80;;;13.98;;
12224;SDS011;6175;50.956;11.064;2023-02-12T06:24:10;18.42;;;12.57;;
12224;SDS011;6175;50.956;11.064;2023-02-12T06:26:38;23.15;;;14.57;;
12224;SDS011;6175;50.956;11.064;2023-02-12T06:29:06;22.95;;;13.82;;
12224;SDS011;6175;50.956;11.064;2023-02-12T06:31:33;18.90;;;12.95;;
12224;SDS011;6175;50.956;11.064;2023-02-12T06:34:02;19.27;;;13.10;;
12224;SDS011;6175;50.956;11.064;2023-02-12T06:36:30;19.23;;;13.00;;
12224;SDS011;6175;50.956;11.064;2023-02-12T06:38:59;20.77;;;14.18;;
12224;SDS011;6175;50.956;11.064;2023-02-12T06:41:27;17.35;;;12.75;;
12224;SDS011;6175;50.956;11.064;2023-02-12T06:43:54;20.67;;;14.73;;
12224;SDS011;6175;50.956;11.064;2023-02-12T06:46:21;21.17;;;13.95;;
12224;SDS011;6175;50.956;11.064;2023-02-12T06:48:51;20.77;;;13.90;;
12224;SDS011;6175;50.956;11.064;2023-02-12T06:51:18;19.30;;;13.13;;
12224;SDS011;6175;50.956;11.064;2023-02-12T06:53:47;18.58;;;13.05;;
12224;SDS011;6175;50.956;11.064;2023-02-12T06:56:16;21.75;;;14.73;;
12224;SDS011;6175;50.956;11.064;2023-02-12T06:58:45;20.92;;;13.95;;
12224;SDS011;6175;50.956;11.064;2023-02-12T07:01:14;22.60;;;14.98;;
12224;SDS011;6175;50.956;11.064;2023-02-12T07:03:42;18.63;;;13.05;;
12224;SDS011;6175;50.956;11.064;2023-02-12T07:06:10;22.65;;;14.65;;
12224;SDS011;6175;50.956;11.064;2023-02-12T07:08:37;21.40;;;14.75;;
12224;SDS011;6175;50.956;11.064;2023-02-12T07:11:04;22.00;;;14.43;;
12224;SDS011;6175;50.956;11.064;2023-02-12T07:13:33;18.50;;;13.60;;
12224;SDS011;6175;50.956;11.064;2023-02-12T07:16:04;20.42;;;13.82;;
12224;SDS011;6175;50.956;11.064;2023-02-12T07:18:32;18.95;;;13.07;;
12224;SDS011;6175;50.956;11.064;2023-02-12T07:20:59;17.85;;;12.25;;
12224;SDS011;6175;50.956;11.064;2023-02-12T07:23:26;19.50;;;13.25;;
12224;SDS011;6175;50.956;11.064;2023-02-12T07:25:54;18.75;;;13.80;;
12224;SDS011;6175;50.956;11.064;2023-02-12T07:28:21;23.38;;;14.75;;
12224;SDS011;6175;50.956;11.064;2023-02-12T07:30:50;20.88;;;14.70;;
12224;SDS011;6175;50.956;11.064;2023-02-12T07:33:17;22.52;;;15.40;;
12224;SDS011;6175;50.956;11.064;2023-02-12T07:35:44;21.60;;;13.90;;
12224;SDS011;6175;50.956;11.064;2023-02-12T07:38:11;22.35;;;15.05;;
12224;SDS011;6175;50.956;11.064;2023-02-12T07:40:38;22.85;;;14.98;;
12224;SDS011;6175;50.956;11.064;2023-02-12T07:43:05;20.55;;;13.68;;
12224;SDS011;6175;50.956;11.064;2023-02-12T07:45:32;17.77;;;12.30;;
12224;SDS011;6175;50.956;11.064;2023-02-12T07:48:01;20.55;;;13.95;;
12224;SDS011;6175;50.956;11.064;2023-02-12T07:50:28;19.33;;;13.65;;
12224;SDS011;6175;50.956;11.064;2023-02-12T07:52:54;20.98;;;13.82;;
12224;SDS011;6175;50.956;11.064;2023-02-12T07:55:22;20.38;;;13.27;;
12224;SDS011;6175;50.956;11.064;2023-02-12T07:57:49;17.45;;;12.55;;
12224;SDS011;6175;50.956;11.064;2023-02-12T08:00:17;17.10;;;12.63;;
12224;SDS011;6175;50.956;11.064;2023-02-12T08:02:49;22.17;;;14.40;;
12224;SDS011;6175;50.956;11.064;2023-02-12T08:05:18;22.90;;;15.10;;
12224;SDS011;6175;50.956;11.064;2023-02-12T08:07:45;21.33;;;13.85;;
12224;SDS011;6175;50.956;11.064;2023-02-12T08:10:12;20.83;;;14.10;;
12224;SDS011;6175;50.956;11.064;2023-02-12T08:12:39;21.15;;;14.07;;
12224;SDS011;6175;50.956;11.064;2023-02-12T08:15:06;20.30;;;14.43;;
12224;SDS011;6175;50.956;11.064;2023-02-12T08:17:33;22.42;;;14.18;;
12224;SDS011;6175;50.956;11.064;2023-02-12T08:20:01;20.23;;;14.45;;
12224;SDS011;6175;50.956;11.064;2023-02-12T08:22:30;20.23;;;14.25;;
12224;SDS011;6175;50.956;11.064;2023-02-12T08:24:57;20.92;;;15.10;;
12224;SDS011;6175;50.956;11.064;2023-02-12T08:27:24;22.63;;;15.05;;
12224;SDS011;6175;50.956;11.064;2023-02-12T08:29:51;36.67;;;21.60;;
12224;SDS011;6175;50.956;11.064;2023-02-12T08:32:18;29.73;;;19.05;;
12224;SDS011;6175;50.956;11.064;2023-02-12T08:34:46;23.83;;;14.75;;
12224;SDS011;6175;50.956;11.064;2023-02-12T08:37:13;22.27;;;14.73;;
12224;SDS011;6175;50.956;11.064;2023-02-12T08:39:42;20.65;;;14.65;;
12224;SDS011;6175;50.956;11.064;2023-02-12T08:42:09;21.35;;;14.20;;
12224;SDS011;6175;50.956;11.064;2023-02-12T08:44:36;19.85;;;13.10;;
12224;SDS011;6175;50.956;11.064;2023-02-12T08:47:04;22.73;;;13.13;;
12224;SDS011;6175;50.956;11.064;2023-02-12T08:49:32;20.58;;;14.02;;
12224;SDS011;6175;50.956;11.064;2023-02-12T08:51:59;20.42;;;13.88;;
12224;SDS011;6175;50.956;11.064;2023-02-12T08:54:27;21.20;;;13.27;;
12224;SDS011;6175;50.956;11.064;2023-02-12T08:56:57;19.58;;;13.35;;
12224;SDS011;6175;50.956;11.064;2023-02-12T08:59:25;22.83;;;14.73;;
12224;SDS011;6175;50.956;11.064;2023-02-12T09:01:52;19.40;;;14.20;;
12224;SDS011;6175;50.956;11.064;2023-02-12T09:04:20;20.98;;;14.00;;
12224;SDS011;6175;50.956;11.064;2023-02-12T09:06:49;21.58;;;14.00;;
12224;SDS011;6175;50.956;11.064;2023-02-12T09:09:16;24.25;;;14.98;;
12224;SDS011;6175;50.956;11.064;2023-02-12T09:11:43;19.45;;;13.65;;
12224;SDS011;6175;50.956;11.064;2023-02-12T09:14:13;23.65;;;14.82;;
12224;SDS011;6175;50.956;11.064;2023-02-12T09:16:41;20.33;;;13.25;;
12224;SDS011;6175;50.956;11.064;2023-02-12T09:19:09;23.67;;;15.20;;
12224;SDS011;6175;50.956;11.064;2023-02-12T09:21:38;23.90;;;14.57;;
12224;SDS011;6175;50.956;11.064;2023-02-12T09:24:05;21.75;;;14.65;;
12224;SDS011;6175;50.956;11.064;2023-02-12T09:26:33;25.55;;;15.57;;
12224;SDS011;6175;50.956;11.064;2023-02-12T09:29:00;24.27;;;15.63;;
12224;SDS011;6175;50.956;11.064;2023-02-12T09:31:30;25.00;;;15.35;;
12224;SDS011;6175;50.956;11.064;2023-02-12T09:33:58;24.98;;;15.13;;
12224;SDS011;6175;50.956;11.064;2023-02-12T09:36:26;24.98;;;15.65;;
12224;SDS011;6175;50.956;11.064;2023-02-12T09:38:53;23.58;;;14.32;;
12224;SDS011;6175;50.956;11.064;2023-02-12T09:41:28;21.15;;;13.63;;
12224;SDS011;6175;50.956;11.064;2023-02-12T09:44:10;23.40;;;14.95;;
12224;SDS011;6175;50.956;11.064;2023-02-12T09:46:46;25.05;;;15.52;;
12224;SDS011;6175;50.956;11.064;2023-02-12T09:49:18;23.40;;;14.25;;
12224;SDS011;6175;50.956;11.064;2023-02-12T09:51:56;23.60;;;13.75;;
12224;SDS011;6175;50.956;11.064;2023-02-12T09:54:25;22.65;;;13.95;;
12224;SDS011;6175;50.956;11.064;2023-02-12T09:56:59;23.27;;;13.95;;
12224;SDS011;6175;50.956;11.064;2023-02-12T09:59:31;24.00;;;15.63;;
12224;SDS011;6175;50.956;11.064;2023-02-12T10:02:05;23.58;;;14.85;;
12224;SDS011;6175;50.956;11.064;2023-02-12T10:04:37;23.15;;;14.82;;
12224;SDS011;6175;50.956;11.064;2023-02-12T10:07:05;20.45;;;13.80;;
12224;SDS011;6175;50.956;11.064;2023-02-12T10:09:43;25.30;;;15.60;;
12224;SDS011;6175;50.956;11.064;2023-02-12T10:12:28;25.08;;;15.52;;
12224;SDS011;6175;50.956;11.064;2023-02-12T10:15:02;24.48;;;15.45;;
12224;SDS011;6175;50.956;11.064;2023-02-12T10:17:45;24.70;;;15.13;;
12224;SDS011;6175;50.956;11.064;2023-02-12T10:20:21;24.73;;;15.70;;
12224;SDS011;6175;50.956;11.064;2023-02-12T10:23:20;20.95;;;13.25;;
12224;SDS011;6175;50.956;11.064;2023-02-12T10:25:56;21.33;;;13.93;;
12224;SDS011;6175;50.956;11.064;2023-02-12T10:28:26;23.00;;;14.75;;
12224;SDS011;6175;50.956;11.064;2023-02-12T10:30:58;19.98;;;14.30;;
12224;SDS011;6175;50.956;11.064;2023-02-12T10:33:30;21.48;;;14.55;;
12224;SDS011;6175;50.956;11.064;2023-02-12T10:36:01;20.40;;;13.50;;
12224;SDS011;6175;50.956;11.064;2023-02-12T10:38:35;22.05;;;14.80;;
12224;SDS011;6175;50.956;11.064;2023-02-12T10:41:05;21.77;;;14.30;;
12224;SDS011;6175;50.956;11.064;2023-02-12T10:43:32;20.75;;;13.82;;
12224;SDS011;6175;50.956;11.064;2023-02-12T10:45:59;20.63;;;13.65;;
12224;SDS011;6175;50.956;11.064;2023-02-12T10:48:30;23.60;;;15.13;;
12224;SDS011;6175;50.956;11.064;2023-02-12T10:51:03;22.48;;;14.43;;
12224;SDS011;6175;50.956;11.064;2023-02-12T10:53:45;18.95;;;14.02;;
12224;SDS011;6175;50.956;11.064;2023-02-12T10:56:14;20.75;;;13.32;;
12224;SDS011;6175;50.956;11.064;2023-02-12T10:58:49;17.73;;;12.45;;
12224;SDS011;6175;50.956;11.064;2023-02-12T11:01:20;21.20;;;14.00;;
12224;SDS011;6175;50.956;11.064;2023-02-12T11:03:51;19.88;;;14.15;;
12224;SDS011;6175;50.956;11.064;2023-02-12T11:06:19;21.92;;;13.93;;
12224;SDS011;6175;50.956;11.064;2023-02-12T11:08:47;21.42;;;13.20;;
12224;SDS011;6175;50.956;11.064;2023-02-12T11:11:15;17.30;;;11.93;;
12224;SDS011;6175;50.956;11.064;2023-02-12T11:13:46;17.70;;;12.07;;
12224;SDS011;6175;50.956;11.064;2023-02-12T11:16:25;14.35;;;10.70;;
12224;SDS011;6175;50.956;11.064;2023-02-12T11:18:58;14.60;;;10.75;;
12224;SDS011;6175;50.956;11.064;2023-02-12T11:21:29;16.20;;;11.15;;
12224;SDS011;6175;50.956;11.064;2023-02-12T11:23:57;16.13;;;10.85;;
12224;SDS011;6175;50.956;11.064;2023-02-12T11:26:58;16.13;;;11.38;;
12224;SDS011;6175;50.956;11.064;2023-02-12T11:29:37;14.23;;;10.07;;
12224;SDS011;6175;50.956;11.064;2023-02-12T11:32:05;15.20;;;10.90;;
12224;SDS011;6175;50.956;11.064;2023-02-12T11:34:33;14.80;;;10.10;;
12224;SDS011;6175;50.956;11.064;2023-02-12T11:37:00;13.88;;;10.00;;
12224;SDS011;6175;50.956;11.064;2023-02-12T11:39:31;14.60;;;10.30;;
12224;SDS011;6175;50.956;11.064;2023-02-12T11:42:00;11.45;;;9.05;;
12224;SDS011;6175;50.956;11.064;2023-02-12T11:44:31;11.93;;;9.23;;
12224;SDS011;6175;50.956;11.064;2023-02-12T11:47:02;10.00;;;7.13;;
12224;SDS011;6175;50.956;11.064;2023-02-12T11:49:33;7.88;;;6.32;;
12224;SDS011;6175;50.956;11.064;2023-02-12T11:52:04;7.43;;;5.57;;
12224;SDS011;6175;50.956;11.064;2023-02-12T11:54:35;6.68;;;5.03;;
12224;SDS011;6175;50.956;11.064;2023-02-12T11:57:06;9.32;;;7.30;;
12224;SDS011;6175;50.956;11.064;2023-02-12T11:59:34;10.98;;;7.90;;
12224;SDS011;6175;50.956;11.064;2023-02-12T12:02:03;12.07;;;8.45;;
12224;SDS011;6175;50.956;11.064;2023-02-12T12:04:41;10.65;;;7.65;;
12224;SDS011;6175;50.956;11.064;2023-02-12T12:07:13;8.73;;;7.03;;
12224;SDS011;6175;50.956;11.064;2023-02-12T12:09:48;9.10;;;7.22;;
12224;SDS011;6175;50.956;11.064;2023-02-12T12:12:21;11.90;;;8.10;;
12224;SDS011;6175;50.956;11.064;2023-02-12T12:15:06;11.40;;;7.45;;
12224;SDS011;6175;50.956;11.064;2023-02-12T12:17:59;9.65;;;7.10;;
12224;SDS011;6175;50.956;11.064;2023-02-12T12:20:50;11.05;;;8.35;;
12224;SDS011;6175;50.956;11.064;2023-02-12T12:23:20;10.80;;;7.97;;
12224;SDS011;6175;50.956;11.064;2023-02-12T12:25:58;11.30;;;8.38;;
12224;SDS011;6175;50.956;11.064;2023-02-12T12:28:33;9.88;;;7.03;;
12224;SDS011;6175;50.956;11.064;2023-02-12T12:31:07;10.05;;;7.40;;
12224;SDS011;6175;50.956;11.064;2023-02-12T12:33:38;9.88;;;7.47;;
12224;SDS011;6175;50.956;11.064;2023-02-12T12:36:19;10.07;;;7.35;;
12224;SDS011;6175;50.956;11.064;2023-02-12T12:39:12;10.52;;;6.93;;
12224;SDS011;6175;50.956;11.064;2023-02-12T12:41:50;9.80;;;6.82;;
12224;SDS011;6175;50.956;11.064;2023-02-12T12:44:34;8.15;;;6.55;;
12224;SDS011;6175;50.956;11.064;2023-02-12T12:47:17;10.43;;;7.68;;
12224;SDS011;6175;50.956;11.064;2023-02-12T12:49:55;10.52;;;7.10;;
12224;SDS011;6175;50.956;11.064;2023-02-12T12:52:48;8.95;;;7.05;;
12224;SDS011;6175;50.956;11.064;2023-02-12T12:55:35;9.77;;;7.45;;
12224;SDS011;6175;50.956;11.064;2023-02-12T12:58:30;10.05;;;7.20;;
12224;SDS011;6175;50.956;11.064;2023-02-12T13:01:09;9.48;;;7.50;;
12224;SDS011;6175;50.956;11.064;2023-02-12T13:06:55;9.60;;;7.38;;
12224;SDS011;6175;50.956;11.064;2023-02-12T13:09:52;11.13;;;7.85;;
12224;SDS011;6175;50.956;11.064;2023-02-12T13:15:29;8.60;;;6.65;;
12224;SDS011;6175;50.956;11.064;2023-02-12T13:18:01;10.48;;;7.50;;
12224;SDS011;6175;50.956;11.064;2023-02-12T13:20:36;10.02;;;7.65;;
12224;SDS011;6175;50.956;11.064;2023-02-12T13:23:13;8.32;;;6.97;;
12224;SDS011;6175;50.956;11.064;2023-02-12T13:25:43;10.13;;;7.07;;
12224;SDS011;6175;50.956;11.064;2023-02-12T13:28:17;11.18;;;6.90;;
12224;SDS011;6175;50.956;11.064;2023-02-12T13:30:52;8.93;;;6.50;;
12224;SDS011;6175;50.956;11.064;2023-02-12T13:33:21;9.20;;;6.75;;
12224;SDS011;6175;50.956;11.064;2023-02-12T13:35:51;9.30;;;7.13;;
12224;SDS011;6175;50.956;11.064;2023-02-12T13:38:23;9.20;;;6.60;;
12224;SDS011;6175;50.956;11.064;2023-02-12T13:40:53;7.95;;;6.07;;
12224;SDS011;6175;50.956;11.064;2023-02-12T13:43:28;9.32;;;6.30;;
12224;SDS011;6175;50.956;11.064;2023-02-12T13:46:05;7.63;;;4.93;;
12224;SDS011;6175;50.956;11.064;2023-02-12T13:48:42;7.60;;;5.13;;
12224;SDS011;6175;50.956;11.064;2023-02-12T13:51:18;6.35;;;4.93;;
12224;SDS011;6175;50.956;11.064;2023-02-12T13:53:57;6.45;;;4.63;;
12224;SDS011;6175;50.956;11.064;2023-02-12T13:56:39;5.63;;;4.60;;
12224;SDS011;6175;50.956;11.064;2023-02-12T14:02:09;5.80;;;4.70;;
12224;SDS011;6175;50.956;11.064;2023-02-12T14:05:13;6.65;;;4.80;;
12224;SDS011;6175;50.956;11.064;2023-02-12T14:07:45;6.88;;;5.05;;
12224;SDS011;6175;50.956;11.064;2023-02-12T14:10:18;5.35;;;4.63;;
12224;SDS011;6175;50.956;11.064;2023-02-12T14:12:47;6.30;;;4.75;;
12224;SDS011;6175;50.956;11.064;2023-02-12T14:15:20;6.68;;;5.00;;
12224;SDS011;6175;50.956;11.064;2023-02-12T14:27:23;6.03;;;4.72;;
12224;SDS011;6175;50.956;11.064;2023-02-12T14:30:00;5.38;;;4.50;;
12224;SDS011;6175;50.956;11.064;2023-02-12T14:32:55;5.30;;;4.05;;
12224;SDS011;6175;50.956;11.064;2023-02-12T14:35:31;6.38;;;5.00;;
12224;SDS011;6175;50.956;11.064;2023-02-12T14:37:59;5.57;;;4.45;;
12224;SDS011;6175;50.956;11.064;2023-02-12T14:40:38;6.00;;;4.95;;
12224;SDS011;6175;50.956;11.064;2023-02-12T14:43:28;7.13;;;5.40;;
12224;SDS011;6175;50.956;11.064;2023-02-12T14:45:57;6.22;;;5.03;;
12224;SDS011;6175;50.956;11.064;2023-02-12T14:48:49;6.05;;;4.95;;
12224;SDS011;6175;50.956;11.064;2023-02-12T14:51:19;6.20;;;4.93;;
12224;SDS011;6175;50.956;11.064;2023-02-12T14:54:01;7.07;;;4.97;;
12224;SDS011;6175;50.956;11.064;2023-02-12T14:56:29;7.78;;;5.05;;
12224;SDS011;6175;50.956;11.064;2023-02-12T14:59:05;4.82;;;4.18;;
12224;SDS011;6175;50.956;11.064;2023-02-12T15:01:36;5.68;;;4.28;;
12224;SDS011;6175;50.956;11.064;2023-02-12T15:04:08;4.10;;;3.40;;
12224;SDS011;6175;50.956;11.064;2023-02-12T15:06:42;4.75;;;3.78;;
12224;SDS011;6175;50.956;11.064;2023-02-12T15:09:19;5.25;;;4.00;;
12224;SDS011;6175;50.956;11.064;2023-02-12T15:11:51;7.88;;;4.90;;
12224;SDS011;6175;50.956;11.064;2023-02-12T15:14:26;5.97;;;4.72;;
12224;SDS011;6175;50.956;11.064;2023-02-12T15:16:57;6.72;;;4.90;;
12224;SDS011;6175;50.956;11.064;2023-02-12T15:22:19;8.23;;;5.70;;
12224;SDS011;6175;50.956;11.064;2023-02-12T15:24:48;9.10;;;6.90;;
12224;SDS011;6175;50.956;11.064;2023-02-12T15:27:15;8.10;;;5.95;;